Time;durP1;ratioP1;P1;durP2;ratioP2;P2;SDS_P1;SDS_P2;PMS_P1;PMS_P2;Temp;Humidity;BMP_temperature;BMP_pressure;BME280_temperature;BME280_humidity;BME280_pressure;Samples;Min_cycle;Max_cycle;Signal;HPM_P1;HPM_P2
2021/05/14 00:01:00;;;;;;;2.67;2.03;;;19.10;70.80;;;;;;5115715;28;20032;-59
2021/05/14 00:03:26;;;;;;;2.63;1.80;;;20.00;71.30;;;;;;5115677;28;20016;-59
2021/05/14 00:05:52;;;;;;;2.15;1.80;;;;;;;;;;5115404;28;20127;-59
2021/05/14 00:08:17;;;;;;;2.78;1.80;;;18.90;66.40;;;;;;5115445;28;20024;-59
2021/05/14 00:10:43;;;;;;;2.22;2.03;;;19.40;71.10;;;;;;5115463;28;20016;-59
2021/05/14 00:13:09;;;;;;;2.40;1.80;;;19.80;71.40;;;;;;5115348;28;20386;-59
2021/05/14 00:15:35;;;;;;;3.15;1.90;;;19.40;71.60;;;;;;5115602;28;20020;-59
2021/05/14 00:18:02;;;;;;;3.28;1.85;;;19.20;70.90;;;;;;5115308;28;20367;-59
2021/05/14 00:20:27;;;;;;;3.70;2.30;;;19.20;71.30;;;;;;5114125;28;20330;-59
2021/05/14 00:22:53;;;;;;;4.90;2.30;;;19.40;71.30;;;;;;5115108;28;20474;-59
2021/05/14 00:25:20;;;;;;;3.00;1.88;;;18.90;94.10;;;;;;5115007;28;20100;-59
2021/05/14 00:27:45;;;;;;;2.50;2.08;;;19.80;71.50;;;;;;5115248;28;20059;-59
2021/05/14 00:30:12;;;;;;;2.70;2.30;;;19.00;70.80;;;;;;5113855;28;20077;-59
2021/05/14 00:32:38;;;;;;;2.10;1.90;;;18.90;69.90;;;;;;5115158;28;20031;-59
2021/05/14 00:35:05;;;;;;;2.80;1.65;;;19.10;70.90;;;;;;5115064;28;20047;-59
2021/05/14 00:37:31;;;;;;;1.73;1.63;;;19.00;69.20;;;;;;5114832;28;20026;-61
2021/05/14 00:39:57;;;;;;;1.98;1.60;;;19.00;70.30;;;;;;5113607;28;20024;-60
2021/05/14 00:42:22;;;;;;;2.22;1.85;;;18.90;70.50;;;;;;5115113;28;20486;-59
2021/05/14 00:44:48;;;;;;;2.50;2.30;;;18.90;94.20;;;;;;5114657;28;20088;-59
2021/05/14 00:47:16;;;;;;;4.22;1.75;;;19.60;71.50;;;;;;5114976;28;20040;-59
2021/05/14 00:49:44;;;;;;;2.22;2.00;;;19.00;71.00;;;;;;5114542;28;20015;-59
2021/05/14 00:52:11;;;;;;;3.38;2.20;;;19.00;70.30;;;;;;5114667;28;20024;-59
2021/05/14 00:54:37;;;;;;;4.72;3.47;;;18.90;70.40;;;;;;5114945;28;20080;-59
2021/05/14 00:57:05;;;;;;;1.50;1.40;;;19.00;70.40;;;;;;5113233;28;20051;-59
2021/05/14 00:59:31;;;;;;;3.50;2.35;;;18.90;69.20;;;;;;5113264;28;20581;-59
2021/05/14 01:01:56;;;;;;;2.00;1.58;;;19.20;70.20;;;;;;5114419;28;20107;-60
2021/05/14 01:04:22;;;;;;;2.75;1.90;;;19.30;70.50;;;;;;5114597;28;20024;-60
2021/05/14 01:06:49;;;;;;;2.05;1.70;;;19.30;70.50;;;;;;5114581;28;20036;-59
2021/05/14 01:09:15;;;;;;;2.50;2.30;;;19.80;71.00;;;;;;5114525;28;20030;-59
2021/05/14 01:11:41;;;;;;;1.80;1.70;;;19.00;70.60;;;;;;5114190;28;20107;-59
2021/05/14 01:14:07;;;;;;;1.95;1.63;;;19.30;69.90;;;;;;5114275;28;20020;-59
2021/05/14 01:16:33;;;;;;;2.45;1.75;;;18.90;70.00;;;;;;5112851;28;20482;-60
2021/05/14 01:18:59;;;;;;;3.83;2.10;;;18.80;66.30;;;;;;5114081;28;20223;-59
2021/05/14 01:21:24;;;;;;;2.92;2.03;;;19.10;64.60;;;;;;5114014;28;20062;-59
2021/05/14 01:23:50;;;;;;;2.10;1.73;;;18.90;63.60;;;;;;5113014;28;20111;-59
2021/05/14 01:26:17;;;;;;;2.65;2.10;;;18.90;63.50;;;;;;5113678;28;20067;-62
2021/05/14 01:28:44;;;;;;;3.38;1.85;;;18.70;62.70;;;;;;5113802;28;20019;-60
2021/05/14 01:31:10;;;;;;;1.90;1.73;;;18.70;62.70;;;;;;5112533;28;20031;-61
2021/05/14 01:33:36;;;;;;;2.35;1.95;;;18.70;62.50;;;;;;5112513;28;20016;-59
2021/05/14 01:36:06;;;;;;;2.30;1.88;;;19.00;62.50;;;;;;5111949;28;20462;-62
2021/05/14 01:38:32;;;;;;;3.58;1.75;;;18.70;62.60;;;;;;5113970;28;20056;-59
2021/05/14 01:40:58;;;;;;;3.75;2.55;;;18.90;62.30;;;;;;5113716;28;20024;-61
2021/05/14 01:43:24;;;;;;;2.92;1.90;;;18.70;62.20;;;;;;5112405;28;20360;-60
2021/05/14 01:45:50;;;;;;;2.45;2.25;;;18.70;62.20;;;;;;5112166;28;20045;-59
2021/05/14 01:48:15;;;;;;;3.28;2.15;;;18.60;61.90;;;;;;5113669;28;20023;-61
2021/05/14 01:50:41;;;;;;;2.58;1.50;;;17.60;61.30;;;;;;5113613;28;20471;-59
2021/05/14 01:53:07;;;;;;;2.13;1.63;;;18.60;61.80;;;;;;5113547;28;20027;-60
2021/05/14 01:55:34;;;;;;;2.47;1.83;;;18.80;62.00;;;;;;5113541;27;20073;-59
2021/05/14 01:58:00;;;;;;;3.60;2.38;;;18.80;62.20;;;;;;5113483;28;20023;-59
2021/05/14 02:00:26;;;;;;;3.15;2.25;;;18.70;61.80;;;;;;5113381;28;20046;-59
2021/05/14 02:02:51;;;;;;;1.92;1.83;;;18.60;61.80;;;;;;5113366;28;20027;-59
2021/05/14 02:05:17;;;;;;;1.77;1.63;;;18.80;62.60;;;;;;5113483;28;20024;-59
2021/05/14 02:07:44;;;;;;;2.13;1.95;;;18.60;61.70;;;;;;5113526;28;20023;-59
2021/05/14 02:10:11;;;;;;;3.90;2.17;;;18.80;61.90;;;;;;5113174;28;20474;-59
2021/05/14 02:12:37;;;;;;;3.05;2.65;;;18.60;61.70;;;;;;5111996;28;20083;-61
2021/05/14 02:15:04;;;;;;;3.70;2.50;;;18.50;61.60;;;;;;5113283;28;20023;-59
2021/05/14 02:17:29;;;;;;;2.35;1.83;;;18.70;61.70;;;;;;5113256;28;20157;-61
2021/05/14 02:19:55;;;;;;;2.03;1.60;;;18.50;61.60;;;;;;5113212;28;20069;-61
2021/05/14 02:22:21;;;;;;;2.55;1.98;;;19.00;61.90;;;;;;5113425;28;20482;-60
2021/05/14 02:24:47;;;;;;;1.88;1.77;;;18.40;61.60;;;;;;5112974;28;20401;-60
2021/05/14 02:27:13;;;;;;;2.35;2.03;;;18.50;61.60;;;;;;5111864;28;20586;-61
2021/05/14 02:29:38;;;;;;;3.00;2.30;;;18.50;62.30;;;;;;5112022;28;20027;-61
2021/05/14 02:32:05;;;;;;;2.08;1.88;;;18.50;61.60;;;;;;5113158;28;20024;-61
2021/05/14 02:34:32;;;;;;;2.33;1.90;;;18.60;61.60;;;;;;5113404;28;20466;-61
2021/05/14 02:36:58;;;;;;;1.85;1.55;;;18.70;61.70;;;;;;5113139;28;20420;-61
2021/05/14 02:39:23;;;;;;;2.25;1.98;;;18.60;61.70;;;;;;5113127;28;20370;-61
2021/05/14 02:41:49;;;;;;;2.38;2.17;;;;;;;;;;5113054;28;20020;-61
2021/05/14 02:44:16;;;;;;;3.08;2.10;;;18.60;60.90;;;;;;5113049;28;20031;-61
2021/05/14 02:46:42;;;;;;;2.22;2.03;;;19.20;62.00;;;;;;5113022;28;20027;-61
2021/05/14 02:49:09;;;;;;;4.03;2.30;;;18.40;61.60;;;;;;5115961;28;20119;-61
2021/05/14 02:51:35;;;;;;;2.33;1.83;;;18.80;61.70;;;;;;5117178;28;20398;-61
2021/05/14 02:54:01;;;;;;;2.33;2.10;;;18.40;61.50;;;;;;5117112;28;20027;-61
2021/05/14 02:56:31;;;;;;;2.70;2.10;;;18.60;61.60;;;;;;5117036;28;20035;-61
2021/05/14 02:58:57;;;;;;;2.42;2.22;;;18.40;61.50;;;;;;5115684;28;20110;-61
2021/05/14 03:01:23;;;;;;;2.20;1.98;;;18.40;61.50;;;;;;5117279;28;20059;-61
2021/05/14 03:03:49;;;;;;;2.35;2.15;;;18.60;61.60;;;;;;5116967;28;20016;-61
2021/05/14 03:06:14;;;;;;;2.65;2.05;;;18.40;61.50;;;;;;5116852;28;20042;-61
2021/05/14 03:08:40;;;;;;;2.85;2.00;;;18.70;61.70;;;;;;5116745;28;20020;-62
2021/05/14 03:11:06;;;;;;;2.78;2.13;;;18.50;61.60;;;;;;5116716;28;20084;-61
2021/05/14 03:13:32;;;;;;;2.58;2.17;;;18.50;61.60;;;;;;5115504;28;20023;-61
2021/05/14 03:15:58;;;;;;;2.40;2.15;;;18.50;61.60;;;;;;5116809;28;20496;-61
2021/05/14 03:18:23;;;;;;;2.65;2.45;;;18.30;61.50;;;;;;5116602;28;20519;-61
2021/05/14 03:20:49;;;;;;;3.40;2.40;;;18.40;61.50;;;;;;5098225;28;20038;-61
2021/05/14 03:23:15;;;;;;;3.28;1.80;;;18.50;61.60;;;;;;5116852;28;20055;-61
2021/05/14 03:25:41;;;;;;;2.53;1.90;;;18.30;61.40;;;;;;5116197;28;20123;-62
2021/05/14 03:28:07;;;;;;;3.00;2.40;;;18.70;61.70;;;;;;5116404;28;20043;-61
2021/05/14 03:30:33;;;;;;;2.95;2.45;;;18.20;61.40;;;;;;5116494;28;20030;-61
2021/05/14 03:32:59;;;;;;;2.42;2.22;;;18.50;61.60;;;;;;5116271;28;20031;-61
2021/05/14 03:35:25;;;;;;;2.88;2.20;;;18.50;61.60;;;;;;5116102;28;20058;-61
2021/05/14 03:37:51;;;;;;;3.42;2.30;;;18.30;61.50;;;;;;5116135;28;20043;-61
2021/05/14 03:40:20;;;;;;;5.03;2.40;;;18.20;61.40;;;;;;5116346;28;20530;-61
2021/05/14 03:42:46;;;;;;;3.25;2.42;;;18.20;61.40;;;;;;5114748;28;20359;-61
2021/05/14 03:45:12;;;;;;;2.72;2.25;;;18.30;62.20;;;;;;5115866;28;20019;-61
2021/05/14 03:47:39;;;;;;;2.83;2.38;;;18.50;61.60;;;;;;5115877;28;20130;-60
2021/05/14 03:50:06;;;;;;;2.85;2.33;;;18.40;61.50;;;;;;5115871;28;20012;-61
2021/05/14 03:52:33;;;;;;;2.15;1.90;;;18.50;61.60;;;;;;5115966;28;20031;-61
2021/05/14 03:54:59;;;;;;;2.03;1.90;;;18.20;61.50;;;;;;5115906;28;20016;-61
2021/05/14 03:57:25;;;;;;;2.65;2.40;;;18.40;61.60;;;;;;5115575;28;20023;-62
2021/05/14 03:59:51;;;;;;;2.97;2.25;;;18.20;61.50;;;;;;5115782;28;20530;-61
2021/05/14 04:02:17;;;;;;;2.72;2.45;;;18.40;61.60;;;;;;5115717;28;20012;-61
2021/05/14 04:04:42;;;;;;;2.10;1.95;;;18.40;61.60;;;;;;5115936;28;20059;-62
2021/05/14 04:07:08;;;;;;;3.25;2.60;;;18.20;61.50;;;;;;5114365;28;20035;-61
2021/05/14 04:09:39;;;;;;;5.00;2.47;;;18.30;61.60;;;;;;5115893;28;20019;-61
2021/05/14 04:12:17;;;;;;;2.50;2.30;;;18.70;61.80;;;;;;5115630;28;20020;-61
2021/05/14 04:14:43;;;;;;;3.45;2.72;;;18.40;61.60;;;;;;5115703;28;20016;-61
2021/05/14 04:17:08;;;;;;;3.35;2.33;;;18.60;61.80;;;;;;5115732;28;20531;-62
2021/05/14 04:19:34;;;;;;;2.15;1.85;;;18.40;61.70;;;;;;5114058;28;20119;-61
2021/05/14 04:22:03;;;;;;;3.55;2.75;;;18.70;61.90;;;;;;5115306;28;20072;-61
2021/05/14 04:24:28;;;;;;;2.47;2.28;;;18.40;61.60;;;;;;5115550;28;20027;-61
2021/05/14 04:26:55;;;;;;;2.45;2.10;;;18.10;61.50;;;;;;5114973;28;20051;-62
2021/05/14 04:29:22;;;;;;;2.50;2.30;;;18.40;61.70;;;;;;5113796;28;20015;-62
2021/05/14 04:31:48;;;;;;;3.67;2.80;;;18.40;61.70;;;;;;5113839;28;20148;-62
2021/05/14 04:34:15;;;;;;;3.40;2.65;;;18.40;61.70;;;;;;5115110;28;20015;-62
2021/05/14 04:36:41;;;;;;;3.50;2.42;;;18.30;61.60;;;;;;5114924;28;20024;-62
2021/05/14 04:39:09;;;;;;;3.03;2.72;;;18.40;62.40;;;;;;5114990;28;20396;-61
2021/05/14 04:41:34;;;;;;;3.45;2.53;;;18.70;61.90;;;;;;5115234;28;20108;-62
2021/05/14 04:44:00;;;;;;;2.75;2.33;;;18.70;61.90;;;;;;5114794;28;20428;-62
2021/05/14 04:46:27;;;;;;;2.50;2.10;;;18.30;61.70;;;;;;5114617;28;20394;-61
2021/05/14 04:48:52;;;;;;;2.90;2.65;;;18.10;61.60;;;;;;5114687;28;20068;-61
2021/05/14 04:51:19;;;;;;;2.75;2.55;;;18.30;61.70;;;;;;5114955;28;20027;-61
2021/05/14 04:53:46;;;;;;;2.45;2.22;;;18.10;61.60;;;;;;5114635;28;20023;-62
2021/05/14 04:56:14;;;;;;;2.13;1.88;;;18.10;61.60;;;;;;5114662;27;20058;-61
2021/05/14 04:58:43;;;;;;;2.83;2.28;;;18.10;61.60;;;;;;5114562;28;20080;-61
2021/05/14 05:01:09;;;;;;;3.20;2.67;;;18.30;61.70;;;;;;5114557;27;20050;-62
2021/05/14 05:03:35;;;;;;;3.05;2.58;;;18.00;61.60;;;;;;5114335;27;20020;-61
2021/05/14 05:06:04;;;;;;;3.90;2.65;;;18.30;61.70;;;;;;5114320;28;20124;-61
2021/05/14 05:08:30;;;;;;;2.97;2.58;;;18.30;61.70;;;;;;5114330;28;20080;-61
2021/05/14 05:10:56;;;;;;;4.18;2.67;;;18.10;62.30;;;;;;5113676;28;20560;-61
2021/05/14 05:13:22;;;;;;;3.55;2.60;;;18.20;61.70;;;;;;5114509;28;20026;-61
2021/05/14 05:15:48;;;;;;;4.30;3.00;;;18.30;61.70;;;;;;5114217;28;20018;-61
2021/05/14 05:18:13;;;;;;;4.38;2.70;;;18.20;61.70;;;;;;5114150;28;20466;-61
2021/05/14 05:20:39;;;;;;;3.72;3.10;;;18.30;61.80;;;;;;5114104;28;20393;-61
2021/05/14 05:23:06;;;;;;;4.65;3.30;;;18.30;61.90;;;;;;5114282;28;20026;-61
2021/05/14 05:25:32;;;;;;;3.10;2.65;;;18.30;61.90;;;;;;5113920;28;20439;-61
2021/05/14 05:27:57;;;;;;;3.20;2.72;;;18.20;61.80;;;;;;5114259;28;20031;-61
2021/05/14 05:30:24;;;;;;;3.92;2.75;;;18.00;61.80;;;;;;5114286;28;20370;-61
2021/05/14 05:32:53;;;;;;;3.17;2.47;;;18.30;62.00;;;;;;5113917;28;20028;-61
2021/05/14 05:35:20;;;;;;;3.15;2.85;;;18.00;61.90;;;;;;5114112;28;20023;-61
2021/05/14 05:37:45;;;;;;;3.65;1.80;;;18.20;62.00;;;;;;5114020;28;20023;-61
2021/05/14 05:40:11;;;;;;;3.67;2.78;;;18.30;62.20;;;;;;5114017;28;20497;-61
2021/05/14 05:42:36;;;;;;;3.90;3.08;;;18.30;62.20;;;;;;5113736;28;20034;-61
2021/05/14 05:45:04;;;;;;;3.33;3.00;;;18.20;62.20;;;;;;5113812;28;20343;-61
2021/05/14 05:47:31;;;;;;;2.67;1.92;;;18.30;62.30;;;;;;5112309;28;20053;-60
2021/05/14 05:49:57;;;;;;;3.55;3.25;;;18.30;62.20;;;;;;5113653;28;20470;-59
2021/05/14 05:52:23;;;;;;;5.15;3.10;;;18.30;62.20;;;;;;5113577;28;20020;-60
2021/05/14 05:54:49;;;;;;;6.35;3.10;;;18.20;62.10;;;;;;5112569;28;20557;-61
2021/05/14 05:57:14;;;;;;;2.75;2.40;;;18.30;62.50;;;;;;5113716;28;20015;-61
2021/05/14 05:59:40;;;;;;;6.00;2.88;;;18.10;62.20;;;;;;5112165;28;20028;-61
2021/05/14 06:02:06;;;;;;;3.60;2.97;;;18.30;63.00;;;;;;5112170;28;20024;-61
2021/05/14 06:04:32;;;;;;;4.10;2.50;;;18.40;62.40;;;;;;5112120;28;20019;-61
2021/05/14 06:06:58;;;;;;;3.78;2.10;;;18.00;62.30;;;;;;5112312;28;20038;-61
2021/05/14 06:09:24;;;;;;;3.40;2.70;;;18.30;62.50;;;;;;5113389;28;20374;-61
2021/05/14 06:11:50;;;;;;;5.90;2.85;;;18.30;62.50;;;;;;5113312;28;20027;-61
2021/05/14 06:14:15;;;;;;;3.55;2.80;;;18.30;62.70;;;;;;5113484;28;20016;-61
2021/05/14 06:16:41;;;;;;;2.53;2.33;;;18.20;62.60;;;;;;5113441;28;20028;-61
2021/05/14 06:22:02;;;;;;;3.50;2.97;;;18.30;62.60;;;;;;5095315;28;20085;-61
2021/05/14 06:24:27;;;;;;;3.53;2.70;;;18.30;62.70;;;;;;5113382;28;20020;-61
2021/05/14 06:26:53;;;;;;;5.18;3.45;;;18.30;62.60;;;;;;5112771;28;20525;-61
2021/05/14 06:29:19;;;;;;;5.05;3.58;;;;;;;;;;5113327;28;20026;-60
2021/05/14 06:31:45;;;;;;;4.90;3.50;;;18.30;62.00;;;;;;5113015;28;20051;-61
2021/05/14 06:34:11;;;;;;;3.45;3.15;;;18.00;62.50;;;;;;5113035;28;20023;-61
2021/05/14 06:36:37;;;;;;;3.00;2.45;;;18.30;62.60;;;;;;5111988;28;20016;-60
2021/05/14 06:39:03;;;;;;;3.88;3.47;;;18.30;62.60;;;;;;5113225;28;20351;-61
2021/05/14 06:41:29;;;;;;;4.63;3.35;;;18.30;62.60;;;;;;5111682;28;20024;-61
2021/05/14 06:43:57;;;;;;;3.53;3.03;;;18.30;62.60;;;;;;5111621;28;20012;-61
2021/05/14 06:46:22;;;;;;;2.65;2.10;;;18.10;62.50;;;;;;5112816;28;20427;-60
2021/05/14 06:48:49;;;;;;;3.08;2.60;;;18.30;62.40;;;;;;5113102;28;20107;-60
2021/05/14 06:51:14;;;;;;;3.70;1.80;;;18.30;62.40;;;;;;5112872;28;20511;-60
2021/05/14 06:53:40;;;;;;;3.17;2.40;;;18.20;62.40;;;;;;5113041;28;20016;-60
2021/05/14 06:56:06;;;;;;;3.55;2.38;;;18.10;62.70;;;;;;5112844;28;20019;-60
2021/05/14 06:58:32;;;;;;;3.53;2.25;;;18.40;63.30;;;;;;5112972;28;20042;-60
2021/05/14 07:00:58;;;;;;;5.30;2.17;;;18.50;63.30;;;;;;5112789;28;20474;-60
2021/05/14 07:03:23;;;;;;;4.15;2.35;;;18.20;63.40;;;;;;5112976;28;20024;-59
2021/05/14 07:05:49;;;;;;;2.30;2.10;;;18.40;63.60;;;;;;5112663;28;20455;-59
2021/05/14 07:08:14;;;;;;;5.90;2.20;;;18.40;63.60;;;;;;5112918;28;20069;-59
2021/05/14 07:10:40;;;;;;;3.55;2.65;;;18.30;63.60;;;;;;5112631;28;20026;-61
2021/05/14 07:13:06;;;;;;;3.92;3.10;;;18.40;63.80;;;;;;5112675;28;20050;-62
2021/05/14 07:15:32;;;;;;;5.00;2.90;;;18.40;64.60;;;;;;5111326;28;20035;-60
2021/05/14 07:17:59;;;;;;;5.82;2.97;;;18.50;64.60;;;;;;5112637;28;20136;-60
2021/05/14 07:20:25;;;;;;;5.80;2.80;;;18.40;64.50;;;;;;5111231;28;20012;-60
2021/05/14 07:22:50;;;;;;;3.03;2.40;;;18.50;64.70;;;;;;5112522;28;20050;-60
2021/05/14 07:25:16;;;;;;;4.72;3.38;;;18.50;64.30;;;;;;5111314;28;20428;-60
2021/05/14 07:27:42;;;;;;;5.60;3.72;;;18.20;63.80;;;;;;5112494;28;20019;-59
2021/05/14 07:30:09;;;;;;;4.10;2.75;;;18.50;63.70;;;;;;5111294;28;20051;-60
2021/05/14 07:32:35;;;;;;;3.55;2.78;;;18.50;63.50;;;;;;5112464;28;20047;-60
2021/05/14 07:35:01;;;;;;;4.00;2.92;;;18.50;63.40;;;;;;5116350;28;20128;-60
2021/05/14 07:37:26;;;;;;;4.88;3.53;;;18.50;63.20;;;;;;5116194;28;20462;-60
2021/05/14 07:39:54;;;;;;;4.38;3.30;;;18.30;62.90;;;;;;5116073;28;20023;-60
2021/05/14 07:42:20;;;;;;;5.10;3.85;;;18.20;62.70;;;;;;5116269;28;20036;-59
2021/05/14 07:44:45;;;;;;;3.63;2.58;;;18.60;62.90;;;;;;5115892;28;20023;-59
2021/05/14 07:47:11;;;;;;;3.70;3.00;;;18.60;62.90;;;;;;5115839;28;20032;-60
2021/05/14 07:49:36;;;;;;;3.30;3.00;;;18.60;62.80;;;;;;5116200;28;20454;-60
2021/05/14 07:52:02;;;;;;;3.40;3.10;;;18.70;62.70;;;;;;5115925;28;20055;-60
2021/05/14 07:54:29;;;;;;;3.13;2.67;;;18.70;62.70;;;;;;5115896;28;20463;-60
2021/05/14 07:56:54;;;;;;;4.22;2.75;;;18.70;62.60;;;;;;5116155;28;20386;-59
2021/05/14 07:59:20;;;;;;;3.83;2.47;;;18.80;62.60;;;;;;5114491;28;20019;-59
2021/05/14 08:01:46;;;;;;;2.90;2.60;;;18.90;62.60;;;;;;5114514;28;20027;-59
2021/05/14 08:04:12;;;;;;;3.15;2.85;;;18.70;62.70;;;;;;5115709;28;20107;-59
2021/05/14 08:06:37;;;;;;;4.30;2.83;;;18.40;62.20;;;;;;5115452;28;20040;-64
2021/05/14 08:09:07;;;;;;;4.03;2.90;;;18.50;62.40;;;;;;5115506;28;20044;-62
2021/05/14 08:11:34;;;;;;;3.73;3.20;;;18.80;62.60;;;;;;5114286;28;20027;-63
2021/05/14 08:14:00;;;;;;;2.90;2.53;;;18.90;63.00;;;;;;5115511;28;20024;-63
2021/05/14 08:16:26;;;;;;;5.40;2.67;;;18.60;62.40;;;;;;5115699;28;20106;-64
2021/05/14 08:18:51;;;;;;;3.35;2.67;;;18.70;62.40;;;;;;5115362;28;20027;-64
2021/05/14 08:21:21;;;;;;;6.55;2.80;;;19.00;62.50;;;;;;5115222;28;20020;-62
2021/05/14 08:23:47;;;;;;;6.63;3.22;;;19.10;62.40;;;;;;5113876;28;20019;-63
2021/05/14 08:26:13;;;;;;;4.80;3.08;;;19.20;62.40;;;;;;5114919;28;20052;-63
2021/05/14 08:28:39;;;;;;;3.67;2.80;;;19.30;62.40;;;;;;5115083;28;20012;-67
2021/05/14 08:31:05;;;;;;;2.63;2.45;;;19.30;62.30;;;;;;5115426;28;20034;-65
2021/05/14 08:33:30;;;;;;;3.80;2.40;;;19.40;62.20;;;;;;5115109;28;20055;-63
2021/05/14 08:35:56;;;;;;;6.22;2.72;;;19.40;62.10;;;;;;5114933;28;20058;-63
2021/05/14 08:38:22;;;;;;;4.35;3.95;;;19.80;62.30;;;;;;5114899;28;20024;-62
2021/05/14 08:40:47;;;;;;;3.17;2.88;;;19.40;62.10;;;;;;5115223;28;20031;-64
2021/05/14 08:43:15;;;;;;;3.28;2.95;;;19.50;85.70;;;;;;5114807;28;20020;-63
2021/05/14 08:45:41;;;;;;;4.82;3.03;;;19.50;62.20;;;;;;5113415;28;20031;-62
2021/05/14 08:48:12;;;;;;;4.75;2.97;;;20.00;62.40;;;;;;5114762;28;20024;-62
2021/05/14 08:50:39;;;;;;;4.15;2.95;;;19.60;62.20;;;;;;5114774;28;20020;-62
2021/05/14 08:53:05;;;;;;;3.60;2.78;;;19.70;62.10;;;;;;5114442;28;20050;-61
2021/05/14 08:55:31;;;;;;;4.65;2.90;;;19.70;61.90;;;;;;5114814;28;20474;-61
2021/05/14 08:57:56;;;;;;;5.45;2.70;;;19.80;61.90;;;;;;5114486;28;20020;-61
2021/05/14 09:00:22;;;;;;;4.38;2.80;;;19.80;61.70;;;;;;5114411;28;20036;-60
2021/05/14 09:02:50;;;;;;;3.47;2.60;;;19.80;61.50;;;;;;5114324;28;20019;-60
2021/05/14 09:05:31;;;;;;;3.03;2.72;;;19.50;61.30;;;;;;5114179;28;20488;-60
2021/05/14 09:07:57;;;;;;;5.07;3.17;;;19.70;61.50;;;;;;5114165;28;20036;-60
2021/05/14 09:10:25;;;;;;;3.45;2.78;;;20.00;61.70;;;;;;5114324;28;20069;-59
2021/05/14 09:12:51;;;;;;;4.40;3.00;;;19.50;61.40;;;;;;5112749;28;20544;-59
2021/05/14 09:15:25;;;;;;;6.45;3.05;;;19.10;61.00;;;;;;5114181;28;20477;-59
2021/05/14 09:18:04;;;;;;;3.03;2.83;;;19.80;61.20;;;;;;5114394;28;20019;-60
2021/05/14 09:20:46;;;;;;;4.93;2.95;;;19.90;61.20;;;;;;5114331;28;20063;-58
2021/05/14 09:23:15;;;;;;;5.28;3.30;;;19.90;60.80;;;;;;5113124;28;20106;-60
2021/05/14 09:25:53;;;;;;;4.75;3.25;;;20.40;60.90;;;;;;5113678;28;20075;-59
2021/05/14 09:28:37;;;;;;;4.78;3.20;;;20.00;60.40;;;;;;5112752;28;20044;-60
2021/05/14 09:31:08;;;;;;;3.58;3.15;;;20.00;60.30;;;;;;5114256;28;20054;-60
2021/05/14 09:33:36;;;;;;;3.47;3.08;;;20.00;61.00;;;;;;5113911;28;20027;-59
2021/05/14 09:36:08;;;;;;;3.75;2.60;;;20.50;60.60;;;;;;5114083;28;20027;-60
2021/05/14 09:38:49;;;;;;;3.83;2.45;;;20.10;60.20;;;;;;5112647;28;20023;-60
2021/05/14 09:41:28;;;;;;;8.55;2.55;;;19.80;59.90;;;;;;5114094;28;20026;-60
2021/05/14 09:44:00;;;;;;;2.50;2.30;;;20.20;60.00;;;;;;5112366;28;20047;-60
2021/05/14 09:46:47;;;;;;;4.85;3.30;;;20.20;59.90;;;;;;5113892;28;20036;-59
2021/05/14 09:49:17;;;;;;;2.88;2.67;;;20.20;59.70;;;;;;5113546;28;20098;-59
2021/05/14 09:51:52;;;;;;;2.92;2.70;;;20.20;59.70;;;;;;5113817;28;20069;-59
2021/05/14 09:54:19;;;;;;;3.88;2.42;;;20.20;59.60;;;;;;5113790;28;20377;-60
2021/05/14 09:57:03;;;;;;;3.30;3.00;;;20.30;59.70;;;;;;5113302;28;20027;-59
2021/05/14 09:59:31;;;;;;;3.60;2.70;;;20.10;59.80;;;;;;5113470;28;20054;-57
2021/05/14 10:01:57;;;;;;;2.53;2.33;;;20.20;59.90;;;;;;5113669;28;20378;-59
2021/05/14 10:04:23;;;;;;;2.65;2.45;;;19.90;59.70;;;;;;5113399;28;20020;-59
2021/05/14 10:06:49;;;;;;;3.00;2.70;;;20.30;59.70;;;;;;5113511;28;20047;-57
2021/05/14 10:09:19;;;;;;;2.92;2.63;;;20.40;59.50;;;;;;5113212;28;20015;-60
2021/05/14 10:11:44;;;;;;;3.00;2.70;;;20.30;59.30;;;;;;5113242;28;20030;-60
2021/05/14 10:14:10;;;;;;;3.25;2.95;;;20.30;59.00;;;;;;5113228;28;20460;-60
2021/05/14 10:16:36;;;;;;;3.22;2.83;;;20.40;59.00;;;;;;5113308;28;20032;-60
2021/05/14 10:19:03;;;;;;;3.00;2.80;;;20.30;58.90;;;;;;5113120;28;20012;-60
2021/05/14 10:21:29;;;;;;;2.65;2.45;;;20.40;59.00;;;;;;5113108;28;20027;-60
2021/05/14 10:23:54;;;;;;;2.72;2.53;;;20.30;59.00;;;;;;5113264;28;20024;-60
2021/05/14 10:26:20;;;;;;;5.38;2.92;;;20.30;59.00;;;;;;5112717;28;20052;-61
2021/05/14 10:28:48;;;;;;;3.70;3.08;;;20.40;59.00;;;;;;5112960;28;20023;-60
2021/05/14 10:31:19;;;;;;;2.53;2.42;;;20.30;59.10;;;;;;5113070;28;20035;-61
2021/05/14 10:33:47;;;;;;;4.07;2.60;;;20.30;59.10;;;;;;5113256;28;20068;-60
2021/05/14 10:36:27;;;;;;;2.78;2.58;;;20.30;59.30;;;;;;5113184;28;20047;-60
2021/05/14 10:39:16;;;;;;;3.20;2.30;;;20.30;59.20;;;;;;5112861;28;20115;-61
2021/05/14 10:41:57;;;;;;;3.25;2.72;;;19.80;58.90;;;;;;5113224;28;20023;-60
2021/05/14 10:44:39;;;;;;;3.45;2.55;;;20.30;59.00;;;;;;5111402;28;20031;-60
2021/05/14 10:47:26;;;;;;;2.90;2.55;;;20.30;59.10;;;;;;5112754;28;20513;-60
2021/05/14 10:50:04;;;;;;;2.90;2.70;;;20.30;59.20;;;;;;5112789;28;20024;-61
2021/05/14 10:52:32;;;;;;;4.78;2.80;;;20.00;59.20;;;;;;5112846;28;20378;-61
2021/05/14 10:54:58;;;;;;;6.00;2.75;;;20.30;59.20;;;;;;5112870;28;20071;-64
2021/05/14 10:57:42;;;;;;;4.60;2.70;;;20.10;59.90;;;;;;5112758;28;20110;-61
2021/05/14 11:00:30;;;;;;;5.18;3.00;;;20.40;59.40;;;;;;5111415;28;20444;-63
2021/05/14 11:03:16;;;;;;;3.40;3.10;;;20.50;59.60;;;;;;5112807;28;20467;-65
2021/05/14 11:05:44;;;;;;;3.22;2.78;;;20.30;59.50;;;;;;5111541;28;20386;-64
2021/05/14 11:08:31;;;;;;;3.53;2.65;;;20.50;60.10;;;;;;5113826;28;20023;-64
2021/05/14 11:11:12;;;;;;;5.30;2.55;;;20.30;60.40;;;;;;5116634;28;20027;-66
2021/05/14 11:13:40;;;;;;;3.72;3.08;;;20.60;60.40;;;;;;5116740;28;20027;-66
2021/05/14 11:16:34;;;;;;;3.03;2.83;;;20.60;60.40;;;;;;5116586;28;20019;-64
2021/05/14 11:19:10;;;;;;;2.40;2.30;;;20.60;60.30;;;;;;5116574;28;20027;-64
2021/05/14 11:21:59;;;;;;;2.88;2.67;;;20.70;60.00;;;;;;5116604;28;20038;-63
2021/05/14 11:24:29;;;;;;;4.00;2.72;;;20.70;59.90;;;;;;5116364;28;20023;-64
2021/05/14 11:27:00;;;;;;;9.98;2.50;;;20.70;60.00;;;;;;5115973;28;20058;-66
2021/05/14 11:29:44;;;;;;;2.75;2.55;;;20.70;59.30;;;;;;5116577;28;20382;-66
2021/05/14 11:32:28;;;;;;;4.53;2.40;;;20.80;59.10;;;;;;5116549;28;20031;-66
2021/05/14 11:34:58;;;;;;;5.50;2.70;;;20.90;59.20;;;;;;5115325;28;20016;-65
2021/05/14 11:37:36;;;;;;;10.55;2.22;;;20.90;59.30;;;;;;5116176;28;20034;-64
2021/05/14 11:40:10;;;;;;;4.82;2.30;;;20.90;59.20;;;;;;5116377;28;20019;-65
2021/05/14 11:42:43;;;;;;;5.60;2.75;;;21.10;83.20;;;;;;5114805;28;20024;-64
2021/05/14 11:45:19;;;;;;;3.25;2.95;;;21.00;60.20;;;;;;5114827;28;20023;-63
2021/05/14 11:47:47;;;;;;;5.07;2.97;;;21.10;60.10;;;;;;5115856;28;20550;-63
2021/05/14 11:50:27;;;;;;;3.30;2.80;;;20.80;59.50;;;;;;5115927;28;20022;-64
2021/05/14 11:52:53;;;;;;;5.60;2.42;;;21.20;59.70;;;;;;5116441;28;20031;-63
2021/05/14 11:55:19;;;;;;;4.95;2.63;;;21.00;59.40;;;;;;5116187;28;20015;-64
2021/05/14 11:57:50;;;;;;;4.47;2.50;;;20.90;59.20;;;;;;5116089;28;20351;-63
2021/05/14 12:00:24;;;;;;;2.95;2.60;;;21.20;59.50;;;;;;5116075;28;20355;-62
2021/05/14 12:02:49;;;;;;;3.03;2.72;;;21.20;59.00;;;;;;5116031;28;20139;-63
2021/05/14 12:05:17;;;;;;;2.60;2.40;;;21.20;59.40;;;;;;5115766;28;20039;-63
2021/05/14 12:07:43;;;;;;;4.07;2.63;;;21.00;59.20;;;;;;5115909;27;20027;-62
2021/05/14 12:10:14;;;;;;;3.95;2.45;;;21.00;59.20;;;;;;5115825;28;20352;-63
2021/05/14 12:12:42;;;;;;;3.10;2.38;;;21.70;59.20;;;;;;5115850;28;20028;-62
2021/05/14 12:15:14;;;;;;;8.70;2.55;;;21.00;58.70;;;;;;5114164;28;20401;-62
2021/05/14 12:17:40;;;;;;;3.53;2.20;;;21.30;58.70;;;;;;5115430;28;20016;-63
2021/05/14 12:20:31;;;;;;;3.05;2.13;;;21.00;58.70;;;;;;5115060;28;20020;-63
2021/05/14 12:23:14;;;;;;;2.40;2.20;;;21.80;59.30;;;;;;5114077;28;20381;-62
2021/05/14 12:25:43;;;;;;;3.60;2.60;;;21.60;59.00;;;;;;5115060;28;20094;-62
2021/05/14 12:28:46;;;;;;;6.22;2.75;;;21.00;58.60;;;;;;5115214;28;20423;-63
2021/05/14 12:31:15;;;;;;;2.70;1.83;;;21.20;58.80;;;;;;5052190;28;20032;-63
2021/05/14 12:33:48;;;;;;;2.63;2.17;;;21.40;58.90;;;;;;5104641;28;20470;-63
2021/05/14 12:36:14;;;;;;;2.72;2.17;;;21.30;58.70;;;;;;5113768;28;20023;-63
2021/05/14 12:38:46;;;;;;;2.50;2.30;;;21.20;58.60;;;;;;5115114;28;20031;-64
2021/05/14 12:41:25;;;;;;;2.30;2.10;;;21.30;58.70;;;;;;5115306;28;20080;-64
2021/05/14 12:44:06;;;;;;;4.20;2.25;;;21.10;58.70;;;;;;5115116;28;20038;-63
2021/05/14 12:46:31;;;;;;;2.15;1.95;;;21.20;58.90;;;;;;5114778;28;20323;-63
2021/05/14 12:49:11;;;;;;;2.60;2.40;;;21.70;59.00;;;;;;5114803;28;20471;-63
2021/05/14 12:51:37;;;;;;;2.72;2.45;;;21.10;58.70;;;;;;5114851;28;20103;-63
2021/05/14 12:54:03;;;;;;;2.92;2.53;;;21.40;58.70;;;;;;5115002;28;20019;-63
2021/05/14 12:56:29;;;;;;;3.80;2.22;;;21.40;58.80;;;;;;5113337;28;20470;-63